createdAt,value
2023-04-17T00:04:32.261Z,9.63
2023-04-17T00:09:33.997Z,9.67
2023-04-17T00:14:35.649Z,9.60
2023-04-17T00:19:37.275Z,12.73
2023-04-17T00:24:38.801Z,12.70
2023-04-17T00:29:40.586Z,9.57
2023-04-17T00:34:42.604Z,11.77
2023-04-17T00:39:44.650Z,8.90
2023-04-17T00:44:46.252Z,14.60
2023-04-17T00:49:49.195Z,14.83
2023-04-17T00:54:50.770Z,10.60
2023-04-17T00:59:52.827Z,11.27
2023-04-17T01:04:57.709Z,13.67
2023-04-17T01:09:59.830Z,14.80
2023-04-17T01:15:01.474Z,13.07
2023-04-17T01:20:07.944Z,14.00
2023-04-17T01:25:09.605Z,14.80
2023-04-17T01:30:14.339Z,12.20
2023-04-17T01:35:23.366Z,13.50
2023-04-17T01:40:25.041Z,11.87
2023-04-17T01:45:27.471Z,12.50
2023-04-17T01:50:29.617Z,14.03
2023-04-17T01:55:31.401Z,15.67
2023-04-17T02:00:33.106Z,12.47
2023-04-17T02:05:34.746Z,13.50
2023-04-17T02:10:37.532Z,14.10
2023-04-17T02:15:39.855Z,16.90
2023-04-17T02:20:41.556Z,13.57
2023-04-17T02:25:43.280Z,13.87
2023-04-17T02:30:45.782Z,17.90
2023-04-17T02:35:48.488Z,13.50
2023-04-17T02:40:59.376Z,15.00
2023-04-17T02:46:03.156Z,15.53
2023-04-17T02:51:05.061Z,15.67
2023-04-17T02:56:06.888Z,15.57
2023-04-17T03:01:09.791Z,15.57
2023-04-17T03:06:15.788Z,15.63
2023-04-17T03:11:17.394Z,15.47
2023-04-17T03:16:19.067Z,16.23
2023-04-17T03:21:21.386Z,13.23
2023-04-17T03:26:30.970Z,14.37
2023-04-17T03:31:36.929Z,13.97
2023-04-17T03:36:38.920Z,15.73
2023-04-17T03:41:41.130Z,10.93
2023-04-17T03:46:46.626Z,15.50
2023-04-17T03:51:48.574Z,14.97
2023-04-17T03:56:53.419Z,16.10
2023-04-17T04:01:55.965Z,14.00
2023-04-17T04:07:01.407Z,15.90
2023-04-17T04:12:03.656Z,14.33
2023-04-17T04:17:15.077Z,13.90
2023-04-17T04:22:18.592Z,15.87
2023-04-17T04:27:27.902Z,15.77
2023-04-17T04:32:31.004Z,14.90
2023-04-17T04:37:32.822Z,14.53
2023-04-17T04:42:42.956Z,16.07
2023-04-17T04:47:50.152Z,14.33
2023-04-17T04:52:51.832Z,14.53
2023-04-17T04:58:11.057Z,15.17
2023-04-17T05:03:15.845Z,14.33
2023-04-17T05:08:17.765Z,16.97
2023-04-17T05:13:30.356Z,15.20
2023-04-17T05:18:32.593Z,15.53
2023-04-17T05:23:35.912Z,12.60
2023-04-17T05:28:45.492Z,12.93
2023-04-17T05:33:52.351Z,13.67
2023-04-17T05:38:54.472Z,10.27
2023-04-17T05:43:56.145Z,14.93
2023-04-17T05:48:57.753Z,13.27
2023-04-17T05:53:59.644Z,11.17
2023-04-17T05:59:01.881Z,13.87
2023-04-17T06:04:04.006Z,12.47
2023-04-17T06:09:07.977Z,9.13
2023-04-17T06:14:09.735Z,12.27
2023-04-17T06:19:12.682Z,10.00
2023-04-17T06:24:14.531Z,15.27
2023-04-17T06:29:20.634Z,12.67
2023-04-17T06:34:23.402Z,12.43
2023-04-17T06:39:25.407Z,11.07
2023-04-17T06:44:27.198Z,9.17
2023-04-17T06:49:32.143Z,9.07
2023-04-17T06:54:36.075Z,9.83
2023-04-17T06:59:38.338Z,10.77
2023-04-17T07:04:40.205Z,9.87
2023-04-17T07:09:43.061Z,10.13
2023-04-17T07:14:44.842Z,9.47
2023-04-17T07:19:46.408Z,8.87
2023-04-17T07:24:48.062Z,8.77
2023-04-17T07:29:54.819Z,9.63
2023-04-17T07:34:56.608Z,9.87
2023-04-17T07:39:58.143Z,9.33
2023-04-17T07:44:59.740Z,8.97
2023-04-17T07:50:02.669Z,8.53
2023-04-17T07:55:04.700Z,11.23
2023-04-17T08:00:09.273Z,8.83
2023-04-17T08:05:15.014Z,7.87
2023-04-17T08:10:16.655Z,8.57
2023-04-17T08:15:18.663Z,7.47
2023-04-17T08:20:22.008Z,7.70
2023-04-17T08:25:24.247Z,8.50
2023-04-17T08:30:25.919Z,6.90
2023-04-17T08:35:27.538Z,7.03
2023-04-17T08:40:29.148Z,7.00
2023-04-17T08:45:30.840Z,5.23
2023-04-17T08:50:32.881Z,7.03
2023-04-17T08:55:34.536Z,7.47
2023-04-17T09:00:38.179Z,5.97
2023-04-17T09:05:48.506Z,5.73
2023-04-17T09:10:51.818Z,7.20
2023-04-17T09:16:10.762Z,5.57
2023-04-17T09:21:13.764Z,5.07
2023-04-17T09:26:18.348Z,5.63
2023-04-17T09:31:19.957Z,6.40
2023-04-17T09:36:22.419Z,6.57
2023-04-17T09:41:28.880Z,6.00
2023-04-17T09:46:45.688Z,5.20
2023-04-17T09:51:47.750Z,5.10
2023-04-17T09:56:55.821Z,3.77
2023-04-17T10:01:57.954Z,4.37
2023-04-17T10:06:59.789Z,3.80
2023-04-17T10:12:03.181Z,4.07
2023-04-17T10:17:31.521Z,3.70
2023-04-17T10:22:34.691Z,3.83
2023-04-17T10:27:37.464Z,4.50
2023-04-17T10:32:41.329Z,3.80
2023-04-17T10:37:52.386Z,4.80
2023-04-17T10:43:22.521Z,3.73
2023-04-17T10:48:28.390Z,3.13
2023-04-17T10:53:41.397Z,4.17
2023-04-17T10:58:59.645Z,2.97
2023-04-17T11:04:01.472Z,2.87
2023-04-17T11:09:06.524Z,3.20
2023-04-17T11:14:12.812Z,3.23
2023-04-17T11:19:26.845Z,3.50
2023-04-17T11:24:30.078Z,3.20
2023-04-17T11:29:31.825Z,3.10
2023-04-17T11:34:34.153Z,3.20
2023-04-17T11:39:35.846Z,2.63
2023-04-17T11:44:42.865Z,2.87
2023-04-17T11:49:46.852Z,2.30
2023-04-17T11:54:48.385Z,2.50
2023-04-17T11:59:50.031Z,2.43
2023-04-17T12:04:51.931Z,2.10
2023-04-17T12:09:57.720Z,2.60
2023-04-17T12:15:00.833Z,2.70
2023-04-17T12:20:04.716Z,2.50
2023-04-17T12:25:07.875Z,2.60
2023-04-17T12:30:10.312Z,2.17
2023-04-17T12:35:12.049Z,2.43
2023-04-17T12:40:24.340Z,2.20
2023-04-17T12:45:28.078Z,2.40
2023-04-17T12:50:29.774Z,3.33
2023-04-17T12:55:32.261Z,2.73
2023-04-17T13:00:34.765Z,2.17
2023-04-17T13:05:36.680Z,1.97
2023-04-17T13:10:38.297Z,1.90
2023-04-17T13:15:39.859Z,5.60
2023-04-17T13:20:41.613Z,2.03
2023-04-17T13:25:43.163Z,1.90
2023-04-17T13:30:44.749Z,1.97
2023-04-17T13:35:46.501Z,1.90
2023-04-17T13:40:48.700Z,1.90
2023-04-17T13:45:52.293Z,1.93
2023-04-17T13:50:55.895Z,2.23
2023-04-17T13:55:57.434Z,1.87
2023-04-17T14:00:59.094Z,2.13
2023-04-17T14:06:00.991Z,1.80
2023-04-17T14:11:02.648Z,1.70
2023-04-17T14:16:04.408Z,1.50
2023-04-17T14:21:06.188Z,2.10
2023-04-17T14:26:07.802Z,2.10
2023-04-17T14:31:09.506Z,1.90
2023-04-17T14:36:11.493Z,1.73
2023-04-17T14:41:13.295Z,1.93
2023-04-17T14:46:14.936Z,1.93
2023-04-17T14:51:17.026Z,2.37
2023-04-17T14:56:19.089Z,2.53
2023-04-17T15:01:26.097Z,2.63
2023-04-17T15:06:29.227Z,6.47
2023-04-17T15:11:30.870Z,2.77
2023-04-17T15:16:32.520Z,2.93
2023-04-17T15:21:34.167Z,2.50
2023-04-17T15:26:35.816Z,3.37
2023-04-17T15:31:38.089Z,2.80
2023-04-17T15:36:39.889Z,2.50
2023-04-17T15:41:41.493Z,2.60
2023-04-17T15:46:43.088Z,3.07
2023-04-17T15:51:44.807Z,3.53
2023-04-17T15:56:46.644Z,3.50
2023-04-17T16:01:48.461Z,3.13
2023-04-17T16:06:50.564Z,2.63
2023-04-17T16:11:52.153Z,2.70
2023-04-17T16:16:53.651Z,3.23
2023-04-17T16:21:57.651Z,2.80
2023-04-17T16:27:03.185Z,2.67
2023-04-17T16:32:04.886Z,2.90
2023-04-17T16:37:06.448Z,2.73
2023-04-17T16:42:09.357Z,2.80
2023-04-17T16:47:13.986Z,2.70
2023-04-17T16:52:15.988Z,3.00
2023-04-17T16:57:17.511Z,3.57
2023-04-17T17:02:19.076Z,2.57
2023-04-17T17:07:20.678Z,2.90
2023-04-17T17:12:22.341Z,2.80
2023-04-17T17:17:24.051Z,2.90
2023-04-17T17:22:25.788Z,2.33
2023-04-17T17:27:27.400Z,2.87
2023-04-17T17:32:29.086Z,3.40
2023-04-17T17:37:30.834Z,3.20
2023-04-17T17:42:32.569Z,3.07
2023-04-17T17:47:34.378Z,2.53
2023-04-17T17:52:36.589Z,3.77
2023-04-17T17:57:48.229Z,3.77
2023-04-17T18:02:50.767Z,3.57
2023-04-17T18:07:52.408Z,3.10
2023-04-17T18:12:54.293Z,3.20
2023-04-17T18:17:55.989Z,3.77
2023-04-17T18:22:57.776Z,4.10
2023-04-17T18:27:59.344Z,3.17
2023-04-17T18:33:01.029Z,4.77
2023-04-17T18:38:02.785Z,3.43
2023-04-17T18:43:06.953Z,3.33
2023-04-17T18:48:08.857Z,3.30
2023-04-17T18:53:10.567Z,3.03
2023-04-17T18:58:12.135Z,3.87
2023-04-17T19:03:13.827Z,3.17
2023-04-17T19:08:15.477Z,2.87
2023-04-17T19:13:17.097Z,3.67
2023-04-17T19:18:27.265Z,3.40
2023-04-17T19:23:29.097Z,3.03
2023-04-17T19:28:30.754Z,3.37
2023-04-17T19:33:33.262Z,3.87
2023-04-17T19:38:34.998Z,3.20
2023-04-17T19:43:36.677Z,3.57
2023-04-17T19:48:38.364Z,3.90
2023-04-17T19:53:45.058Z,3.90
2023-04-17T19:58:46.992Z,3.67
2023-04-17T20:03:48.767Z,3.80
2023-04-17T20:08:51.519Z,5.20
2023-04-17T20:13:53.189Z,4.50
2023-04-17T20:18:56.757Z,6.13
2023-04-17T20:23:59.638Z,8.93
2023-04-17T20:29:01.491Z,4.67
2023-04-17T20:34:03.933Z,3.97
2023-04-17T20:39:06.334Z,4.13
2023-04-17T20:44:08.537Z,3.80
2023-04-17T20:49:10.255Z,3.40
2023-04-17T20:54:12.345Z,3.60
2023-04-17T20:59:14.208Z,3.63
2023-04-17T21:04:16.490Z,3.60
2023-04-17T21:09:18.341Z,3.60
2023-04-17T21:14:20.217Z,3.33
2023-04-17T21:19:24.147Z,4.13
2023-04-17T21:24:25.813Z,3.50
2023-04-17T21:29:28.247Z,4.60
2023-04-17T21:34:29.854Z,3.80
2023-04-17T21:39:33.227Z,5.43
2023-04-17T21:44:35.939Z,5.10
2023-04-17T21:49:37.592Z,3.57
2023-04-17T21:54:44.673Z,4.80
2023-04-17T21:59:46.254Z,4.27
2023-04-17T22:04:52.789Z,4.07
2023-04-17T22:09:54.575Z,3.73
2023-04-17T22:14:56.117Z,4.17
2023-04-17T22:19:57.794Z,3.90
2023-04-17T22:24:59.443Z,3.83
2023-04-17T22:30:01.008Z,4.07
2023-04-17T22:35:02.804Z,3.90
2023-04-17T22:40:04.974Z,3.77
2023-04-17T22:45:07.080Z,4.47
2023-04-17T22:50:10.935Z,5.80
2023-04-17T22:55:12.785Z,4.00
2023-04-17T23:00:15.057Z,4.87
2023-04-17T23:05:17.058Z,6.00
2023-04-17T23:10:19.907Z,3.50
2023-04-17T23:15:21.741Z,5.00
2023-04-17T23:20:24.887Z,4.37
2023-04-17T23:25:26.501Z,4.03
2023-04-17T23:30:28.081Z,5.53
2023-04-17T23:35:29.893Z,4.13
2023-04-17T23:40:32.894Z,3.97
2023-04-17T23:45:34.496Z,3.50
2023-04-17T23:50:36.439Z,3.57
2023-04-17T23:55:38.280Z,4.60
